Time;durP1;ratioP1;P1;durP2;ratioP2;P2;SDS_P1;SDS_P2;PMS_P1;PMS_P2;Temp;Humidity;BMP_temperature;BMP_pressure;BME280_temperature;BME280_humidity;BME280_pressure;Samples;Min_cycle;Max_cycle;Signal;HPM_P1;HPM_P2
2022/08/25 00:00:46;;;;;;;5.15;3.60;;;21.00;99.90;;;;;;5089823;28;20055;-55
2022/08/25 00:03:12;;;;;;;6.47;4.00;;;21.00;99.90;;;;;;5088933;28;20387;-55
2022/08/25 00:05:38;;;;;;;4.47;3.67;;;20.90;99.90;;;;;;5089394;28;20065;-56
2022/08/25 00:08:05;;;;;;;5.13;3.40;;;20.90;99.90;;;;;;5089831;28;20059;-55
2022/08/25 00:10:33;;;;;;;4.80;4.07;;;20.90;99.90;;;;;;5080043;28;20490;-56
2022/08/25 00:13:00;;;;;;;5.28;4.13;;;20.90;99.90;;;;;;5087532;28;20056;-56
2022/08/25 00:15:26;;;;;;;7.45;3.40;;;20.90;99.90;;;;;;5087893;28;20091;-55
2022/08/25 00:17:52;;;;;;;5.47;4.10;;;20.90;99.90;;;;;;5085636;28;20080;-55
2022/08/25 00:20:17;;;;;;;4.22;3.80;;;20.90;99.90;;;;;;5069255;28;20649;-56
2022/08/25 00:22:44;;;;;;;5.13;3.47;;;20.80;99.90;;;;;;5073012;28;20093;-55
2022/08/25 00:25:10;;;;;;;6.88;3.53;;;20.80;99.90;;;;;;5087956;28;20429;-57
2022/08/25 00:27:36;;;;;;;3.72;3.42;;;20.80;99.90;;;;;;5088539;28;20044;-56
2022/08/25 00:30:04;;;;;;;4.35;3.70;;;20.80;99.90;;;;;;5087988;28;20058;-55
2022/08/25 00:32:30;;;;;;;4.68;3.88;;;20.70;99.90;;;;;;5088223;28;20399;-55
2022/08/25 00:34:56;;;;;;;5.90;3.47;;;20.70;99.90;;;;;;5088933;28;20040;-55
2022/08/25 00:37:22;;;;;;;6.70;3.40;;;20.70;99.90;;;;;;5074703;28;20045;-56
2022/08/25 00:39:48;;;;;;;5.93;3.88;;;20.60;99.90;;;;;;5068596;28;20094;-56
2022/08/25 00:42:14;;;;;;;4.47;4.07;;;20.60;99.90;;;;;;5068900;28;20478;-55
2022/08/25 00:44:40;;;;;;;4.25;3.50;;;20.60;99.90;;;;;;5068301;28;20139;-56
2022/08/25 00:47:08;;;;;;;5.20;4.20;;;20.60;99.90;;;;;;5068826;28;20048;-55
2022/08/25 00:50:01;;;;;;;6.10;3.25;;;20.50;99.90;;;;;;5068311;28;20048;-55
2022/08/25 00:52:30;;;;;;;8.13;4.22;;;20.50;99.90;;;;;;5066479;28;20143;-56
2022/08/25 00:55:10;;;;;;;4.07;3.50;;;20.50;99.90;;;;;;5077321;28;20048;-55
2022/08/25 00:57:53;;;;;;;5.22;3.13;;;20.40;99.90;;;;;;5088745;28;20151;-58
2022/08/25 01:00:26;;;;;;;7.70;3.58;;;20.40;99.90;;;;;;5088715;28;20066;-55
2022/08/25 01:02:52;;;;;;;6.45;4.00;;;20.40;99.90;;;;;;5087900;28;20052;-56
2022/08/25 01:05:19;;;;;;;7.13;4.05;;;20.40;99.90;;;;;;5085512;28;20051;-56
2022/08/25 01:07:45;;;;;;;5.95;3.63;;;20.30;99.90;;;;;;5087921;28;20040;-57
2022/08/25 01:10:12;;;;;;;3.90;3.47;;;20.30;99.90;;;;;;5072954;28;20518;-57
2022/08/25 01:12:38;;;;;;;4.47;3.05;;;20.30;99.90;;;;;;5067327;28;20051;-55
2022/08/25 01:15:07;;;;;;;5.32;3.70;;;20.30;99.90;;;;;;5067396;28;20048;-56
2022/08/25 01:17:53;;;;;;;6.82;4.00;;;20.20;99.90;;;;;;5068313;28;20044;-60
2022/08/25 01:20:22;;;;;;;8.50;3.75;;;20.20;99.90;;;;;;5087304;28;20040;-57
2022/08/25 01:22:49;;;;;;;5.13;3.38;;;20.10;99.90;;;;;;5087228;28;20619;-57
2022/08/25 01:25:23;;;;;;;4.28;3.45;;;20.10;99.90;;;;;;5080446;28;20041;-55
2022/08/25 01:27:49;;;;;;;6.88;4.18;;;20.10;99.90;;;;;;5067158;28;20414;-55
2022/08/25 01:30:15;;;;;;;3.78;3.45;;;20.00;99.90;;;;;;5067217;28;20045;-57
2022/08/25 01:32:40;;;;;;;5.05;2.83;;;20.00;99.90;;;;;;5065472;28;20502;-59
2022/08/25 01:35:06;;;;;;;3.88;3.38;;;19.90;99.90;;;;;;5075332;28;20126;-55
2022/08/25 01:37:35;;;;;;;5.75;3.30;;;19.90;99.90;;;;;;5072221;28;20036;-56
2022/08/25 01:40:01;;;;;;;8.70;4.03;;;19.90;99.90;;;;;;5067798;28;20109;-56
2022/08/25 01:42:51;;;;;;;6.00;3.70;;;19.90;99.90;;;;;;5067540;28;20552;-56
2022/08/25 01:45:17;;;;;;;4.05;3.22;;;19.90;99.90;;;;;;5065714;28;20506;-60
2022/08/25 01:47:43;;;;;;;4.65;4.03;;;19.70;99.90;;;;;;5067317;28;20050;-62
2022/08/25 01:50:09;;;;;;;6.35;3.28;;;19.70;99.90;;;;;;5067322;28;20040;-60
2022/08/25 01:52:57;;;;;;;7.03;3.40;;;19.70;99.90;;;;;;5066344;28;20390;-61
2022/08/25 01:55:24;;;;;;;4.55;3.88;;;19.60;99.90;;;;;;5079003;28;20502;-61
2022/08/25 01:57:50;;;;;;;4.97;3.67;;;19.60;99.90;;;;;;5087254;28;20044;-58
2022/08/25 02:00:17;;;;;;;4.88;3.70;;;19.60;99.90;;;;;;5087683;28;20108;-60
2022/08/25 02:02:43;;;;;;;4.30;3.70;;;19.60;99.90;;;;;;5087056;28;20044;-61
2022/08/25 02:05:15;;;;;;;5.57;4.25;;;19.50;99.90;;;;;;5087291;28;20051;-60
2022/08/25 02:07:42;;;;;;;5.57;3.70;;;19.50;99.90;;;;;;5087248;28;20086;-60
2022/08/25 02:10:10;;;;;;;4.47;3.90;;;19.50;99.90;;;;;;5087086;28;20051;-58
2022/08/25 02:12:36;;;;;;;5.20;3.85;;;19.50;99.90;;;;;;5080565;28;20543;-57
2022/08/25 02:15:05;;;;;;;4.35;3.90;;;19.50;99.90;;;;;;5066936;28;20060;-58
2022/08/25 02:17:30;;;;;;;4.88;3.60;;;19.50;99.90;;;;;;5068114;28;20159;-60
2022/08/25 02:19:56;;;;;;;6.50;3.95;;;19.50;99.90;;;;;;5087621;28;20163;-61
2022/08/25 02:22:23;;;;;;;4.00;3.22;;;19.40;99.90;;;;;;5087191;28;20051;-58
2022/08/25 02:24:49;;;;;;;6.95;3.95;;;19.40;99.90;;;;;;5087401;28;20051;-59
2022/08/25 02:27:14;;;;;;;7.55;3.85;;;19.40;99.90;;;;;;5085856;28;20039;-58
2022/08/25 02:29:41;;;;;;;3.90;3.50;;;19.40;99.90;;;;;;5087058;28;20040;-60
2022/08/25 02:32:07;;;;;;;6.88;3.90;;;19.30;99.90;;;;;;5086794;28;20486;-61
2022/08/25 02:34:32;;;;;;;5.05;3.72;;;19.30;99.90;;;;;;5086627;28;20108;-61
2022/08/25 02:36:58;;;;;;;4.72;3.90;;;19.30;99.90;;;;;;5075697;28;20056;-61
2022/08/25 02:39:23;;;;;;;3.97;3.58;;;19.30;99.90;;;;;;5072015;28;20477;-60
2022/08/25 02:41:50;;;;;;;8.32;3.38;;;19.30;99.90;;;;;;5086314;28;20098;-56
2022/08/25 02:44:16;;;;;;;8.70;4.25;;;19.30;99.90;;;;;;5069236;28;20040;-58
2022/08/25 02:46:41;;;;;;;3.95;3.22;;;20.10;99.90;;;;;;5086796;28;20059;-56
2022/08/25 02:49:07;;;;;;;5.45;3.60;;;19.20;99.90;;;;;;5086894;28;20040;-55
2022/08/25 02:51:34;;;;;;;4.10;3.65;;;19.30;99.90;;;;;;5086758;28;20043;-55
2022/08/25 02:54:02;;;;;;;5.25;3.50;;;19.20;99.90;;;;;;5086846;28;20052;-56
2022/08/25 02:56:29;;;;;;;5.40;3.58;;;19.20;99.90;;;;;;5083062;28;20045;-56
2022/08/25 02:58:55;;;;;;;4.97;3.47;;;19.20;99.90;;;;;;5066352;28;20101;-55
2022/08/25 03:01:21;;;;;;;6.65;3.50;;;19.20;99.90;;;;;;5064995;28;20434;-55
2022/08/25 03:03:47;;;;;;;6.68;3.53;;;19.20;99.90;;;;;;5066763;28;20140;-56
2022/08/25 03:06:17;;;;;;;6.65;4.15;;;19.10;99.90;;;;;;5066504;28;20399;-55
2022/08/25 03:08:44;;;;;;;5.45;3.20;;;19.10;99.90;;;;;;5066632;28;20047;-56
2022/08/25 03:11:10;;;;;;;6.40;3.95;;;19.10;99.90;;;;;;5066421;28;20053;-56
2022/08/25 03:13:35;;;;;;;5.18;4.05;;;19.10;99.90;;;;;;5066471;28;20126;-55
2022/08/25 03:16:03;;;;;;;8.18;4.05;;;19.10;99.90;;;;;;5081405;28;20398;-56
2022/08/25 03:18:29;;;;;;;5.60;4.18;;;19.00;99.90;;;;;;5077336;28;20037;-55
2022/08/25 03:20:55;;;;;;;7.60;3.78;;;19.00;99.90;;;;;;5066232;28;20131;-55
2022/08/25 03:23:21;;;;;;;7.97;4.15;;;19.00;99.90;;;;;;5075703;28;20119;-55
2022/08/25 03:28:31;;;;;;;6.07;3.50;;;19.00;99.90;;;;;;5086489;28;20134;-55
2022/08/25 03:30:59;;;;;;;4.63;3.33;;;18.90;99.90;;;;;;5085478;28;20338;-57
2022/08/25 03:33:26;;;;;;;5.75;3.58;;;18.90;99.90;;;;;;5085979;28;20469;-56
2022/08/25 03:35:53;;;;;;;6.07;3.90;;;18.90;99.90;;;;;;5084945;28;20048;-56
2022/08/25 03:38:18;;;;;;;5.75;3.35;;;18.80;99.90;;;;;;5065496;28;20462;-55
2022/08/25 03:40:44;;;;;;;7.47;4.22;;;18.80;99.90;;;;;;5065919;28;20056;-56
2022/08/25 03:43:10;;;;;;;3.65;3.35;;;18.80;99.90;;;;;;5065292;28;20044;-58
2022/08/25 03:45:39;;;;;;;4.10;3.70;;;18.80;99.90;;;;;;5075856;28;20468;-61
2022/08/25 03:48:05;;;;;;;7.82;4.00;;;18.70;99.90;;;;;;5072046;28;20474;-59
2022/08/25 03:50:31;;;;;;;8.63;3.55;;;18.70;99.90;;;;;;5069303;28;20105;-60
2022/08/25 03:52:56;;;;;;;4.95;3.30;;;18.70;99.90;;;;;;5069898;28;20052;-61
2022/08/25 03:55:24;;;;;;;6.05;3.95;;;18.70;99.90;;;;;;5068118;28;20044;-61
2022/08/25 03:57:51;;;;;;;6.22;3.53;;;18.70;99.90;;;;;;5069109;28;20044;-55
2022/08/25 04:00:17;;;;;;;5.75;4.05;;;18.60;99.90;;;;;;5069704;28;20055;-56
2022/08/25 04:02:43;;;;;;;10.30;4.82;;;18.60;99.90;;;;;;5085318;28;20048;-55
2022/08/25 04:05:09;;;;;;;5.43;3.85;;;18.60;99.90;;;;;;5089887;28;20123;-57
2022/08/25 04:07:35;;;;;;;14.18;4.38;;;18.60;99.90;;;;;;5089753;28;20141;-55
2022/08/25 04:10:01;;;;;;;5.63;4.22;;;18.60;99.90;;;;;;5087820;28;20048;-57
2022/08/25 04:12:27;;;;;;;5.38;4.78;;;18.60;99.90;;;;;;5076374;28;20444;-56
2022/08/25 04:14:53;;;;;;;6.45;4.47;;;18.60;99.90;;;;;;5068784;28;20114;-55
2022/08/25 04:17:18;;;;;;;9.77;5.03;;;18.60;99.90;;;;;;5069599;28;20048;-55
2022/08/25 04:19:44;;;;;;;8.00;4.32;;;18.60;99.90;;;;;;5088737;28;20097;-55
2022/08/25 04:22:10;;;;;;;11.55;4.30;;;18.60;99.90;;;;;;5088981;28;20086;-55
2022/08/25 04:24:35;;;;;;;8.95;4.55;;;18.60;99.90;;;;;;5089112;28;20514;-55
2022/08/25 04:27:01;;;;;;;6.20;4.25;;;18.50;99.90;;;;;;5087945;28;20105;-55
2022/08/25 04:29:27;;;;;;;5.00;4.50;;;18.50;99.90;;;;;;5089222;28;20447;-55
2022/08/25 04:31:54;;;;;;;6.38;4.55;;;18.50;99.90;;;;;;5087752;28;20051;-56
2022/08/25 04:34:23;;;;;;;6.63;4.78;;;18.50;99.90;;;;;;5087419;28;20386;-57
2022/08/25 04:36:51;;;;;;;8.15;4.75;;;18.50;99.90;;;;;;5079365;28;20479;-56
2022/08/25 04:39:21;;;;;;;4.90;4.40;;;18.50;99.90;;;;;;5066254;28;20497;-55
2022/08/25 04:41:48;;;;;;;4.88;4.10;;;18.50;99.90;;;;;;5069093;28;20428;-56
2022/08/25 04:44:14;;;;;;;6.07;4.80;;;18.50;99.90;;;;;;5066755;28;20051;-57
2022/08/25 04:46:40;;;;;;;4.25;3.85;;;18.50;99.90;;;;;;5067619;28;20056;-56
2022/08/25 04:49:05;;;;;;;5.25;4.45;;;18.50;99.90;;;;;;5068829;28;20048;-57
2022/08/25 04:51:35;;;;;;;7.68;5.38;;;18.50;99.90;;;;;;5068533;28;20087;-55
2022/08/25 04:54:04;;;;;;;9.35;5.00;;;18.50;99.90;;;;;;5068677;28;20047;-57
2022/08/25 04:56:32;;;;;;;6.72;5.18;;;18.50;99.90;;;;;;5067852;28;20048;-56
2022/08/25 04:59:02;;;;;;;6.88;4.63;;;18.50;99.90;;;;;;5067492;28;20454;-57
2022/08/25 05:01:28;;;;;;;8.65;5.07;;;18.50;99.90;;;;;;5068274;28;20059;-58
2022/08/25 05:03:56;;;;;;;7.07;4.97;;;18.50;99.90;;;;;;5086551;28;20040;-55
2022/08/25 05:06:22;;;;;;;10.70;5.70;;;18.60;99.90;;;;;;5087207;28;20383;-55
2022/08/25 05:08:48;;;;;;;7.00;4.97;;;18.60;99.90;;;;;;5088184;28;20055;-56
2022/08/25 05:11:16;;;;;;;6.13;4.70;;;18.60;99.90;;;;;;5088382;28;20186;-58
2022/08/25 05:13:44;;;;;;;6.18;5.05;;;18.70;99.90;;;;;;5086250;28;20067;-55
2022/08/25 05:16:10;;;;;;;7.18;5.65;;;18.70;99.90;;;;;;5088305;28;20532;-55
2022/08/25 05:18:36;;;;;;;6.97;5.80;;;18.70;99.90;;;;;;5080303;28;20123;-55
2022/08/25 05:21:04;;;;;;;9.05;5.90;;;18.80;99.90;;;;;;5069760;28;20185;-54
2022/08/25 05:23:30;;;;;;;11.73;6.10;;;18.90;99.90;;;;;;5087626;28;20087;-59
2022/08/25 05:26:11;;;;;;;6.82;6.13;;;18.90;99.90;;;;;;5088043;28;20102;-55
2022/08/25 05:28:40;;;;;;;7.53;5.68;;;19.00;99.90;;;;;;5088510;28;20080;-55
2022/08/25 05:31:07;;;;;;;9.52;5.50;;;19.00;99.90;;;;;;5086519;28;20047;-55
2022/08/25 05:33:34;;;;;;;7.10;5.63;;;19.10;99.90;;;;;;5087067;28;20074;-55
2022/08/25 05:36:00;;;;;;;7.10;5.43;;;19.20;99.90;;;;;;5084976;28;20046;-56
2022/08/25 05:38:26;;;;;;;8.25;5.57;;;19.30;99.90;;;;;;5088154;28;20040;-57
2022/08/25 05:41:03;;;;;;;9.35;5.35;;;19.30;99.90;;;;;;5083249;28;20399;-57
2022/08/25 05:43:30;;;;;;;8.30;5.22;;;19.40;99.90;;;;;;5087536;28;20048;-58
2022/08/25 05:45:57;;;;;;;9.98;6.07;;;19.50;99.90;;;;;;5087358;28;20059;-55
2022/08/25 05:48:23;;;;;;;9.23;6.65;;;19.60;99.90;;;;;;5067166;28;20040;-55
2022/08/25 05:51:01;;;;;;;10.85;6.25;;;19.70;99.90;;;;;;5048547;28;20165;-55
2022/08/25 05:53:28;;;;;;;17.45;6.47;;;19.80;99.90;;;;;;5067077;28;20090;-60
2022/08/25 05:55:57;;;;;;;6.88;5.60;;;19.90;99.90;;;;;;5066428;28;20524;-60
2022/08/25 05:58:24;;;;;;;11.35;6.68;;;20.00;99.90;;;;;;5066449;28;20506;-60
2022/08/25 06:00:50;;;;;;;9.95;6.93;;;20.10;99.90;;;;;;5063608;28;20525;-61
2022/08/25 06:03:17;;;;;;;7.30;5.35;;;20.20;99.90;;;;;;5053129;28;20060;-60
2022/08/25 06:05:42;;;;;;;7.93;6.50;;;20.30;99.90;;;;;;5065169;28;20128;-56
2022/08/25 06:08:08;;;;;;;8.48;6.60;;;20.40;99.90;;;;;;5062022;28;20052;-59
2022/08/25 06:10:34;;;;;;;9.30;6.20;;;20.50;99.90;;;;;;5045343;28;20396;-59
2022/08/25 06:13:01;;;;;;;8.40;5.88;;;20.70;99.90;;;;;;5065896;28;20148;-57
2022/08/25 06:15:26;;;;;;;8.77;6.82;;;20.80;99.90;;;;;;5054454;28;20055;-61
2022/08/25 06:17:53;;;;;;;6.50;5.53;;;21.00;99.90;;;;;;5053453;28;20304;-61
2022/08/25 06:20:21;;;;;;;8.88;5.47;;;21.10;99.90;;;;;;5061430;28;20048;-58
2022/08/25 06:22:48;;;;;;;8.40;6.00;;;21.30;99.90;;;;;;5064156;28;20162;-60
2022/08/25 06:25:15;;;;;;;9.63;6.45;;;21.50;99.90;;;;;;5066472;28;20123;-62
2022/08/25 06:27:41;;;;;;;8.77;6.30;;;21.70;99.90;;;;;;5066544;28;20052;-57
2022/08/25 06:30:09;;;;;;;9.63;5.30;;;21.80;99.90;;;;;;5066558;28;20108;-59
2022/08/25 06:32:38;;;;;;;8.02;5.82;;;22.00;99.90;;;;;;5059134;28;20048;-58
2022/08/25 06:35:05;;;;;;;7.88;6.07;;;22.20;99.90;;;;;;5059222;28;20379;-56
2022/08/25 06:37:31;;;;;;;7.55;6.28;;;22.40;99.90;;;;;;5062115;28;20582;-59
2022/08/25 06:39:57;;;;;;;7.47;5.88;;;22.50;99.90;;;;;;5053879;28;20148;-60
2022/08/25 06:42:23;;;;;;;8.65;5.53;;;22.70;99.90;;;;;;5061852;28;20055;-59
2022/08/25 06:44:48;;;;;;;5.80;5.20;;;22.70;99.90;;;;;;5047397;28;20507;-58
2022/08/25 06:47:16;;;;;;;8.10;6.25;;;22.90;99.90;;;;;;5045908;28;20088;-56
2022/08/25 06:49:42;;;;;;;7.18;5.38;;;23.00;99.90;;;;;;5046034;28;20533;-56
2022/08/25 06:52:08;;;;;;;11.00;5.72;;;23.10;99.90;;;;;;5047453;28;20063;-60
2022/08/25 06:54:34;;;;;;;8.05;5.68;;;23.10;99.90;;;;;;5063698;28;20057;-56
2022/08/25 06:57:00;;;;;;;12.68;5.78;;;23.30;99.90;;;;;;5065693;28;20059;-56
2022/08/25 06:59:26;;;;;;;8.23;5.25;;;23.30;99.90;;;;;;5060071;28;20521;-57
2022/08/25 07:01:53;;;;;;;7.10;5.03;;;23.40;99.90;;;;;;5065664;28;20528;-58
2022/08/25 07:04:19;;;;;;;6.05;4.78;;;23.60;99.90;;;;;;5065769;28;20043;-57
2022/08/25 07:06:45;;;;;;;7.50;5.57;;;23.70;99.90;;;;;;5061729;28;20586;-58
2022/08/25 07:09:11;;;;;;;9.70;6.20;;;23.60;99.90;;;;;;5064773;28;20045;-57
2022/08/25 07:11:38;;;;;;;8.95;6.15;;;23.80;99.90;;;;;;5064948;28;20048;-58
2022/08/25 07:14:06;;;;;;;11.15;5.03;;;23.90;99.90;;;;;;5064948;28;20064;-56
2022/08/25 07:16:32;;;;;;;7.55;5.60;;;24.20;99.90;;;;;;5064575;28;20410;-58
2022/08/25 07:18:59;;;;;;;11.07;5.90;;;24.40;99.90;;;;;;5045716;28;20059;-58
2022/08/25 07:21:27;;;;;;;8.38;5.05;;;24.60;99.90;;;;;;5065498;28;20077;-56
2022/08/25 07:23:53;;;;;;;8.68;5.28;;;24.80;99.90;;;;;;5067885;28;20052;-58
2022/08/25 07:26:22;;;;;;;9.10;4.72;;;24.80;99.90;;;;;;5065242;28;20123;-58
2022/08/25 07:28:48;;;;;;;7.53;5.47;;;25.00;99.90;;;;;;5055395;28;20095;-58
2022/08/25 07:31:14;;;;;;;8.40;5.35;;;25.00;99.90;;;;;;5047875;28;20095;-58
2022/08/25 07:35:14;;;;;;;7.18;4.90;;;25.20;99.90;;;;;;5048080;28;20119;-56
2022/08/25 07:36:32;;;;;;;9.45;4.95;;;25.50;99.90;;;;;;5061631;28;20048;-55
2022/08/25 07:38:58;;;;;;;8.02;5.03;;;25.70;99.90;;;;;;5049478;28;20068;-56
2022/08/25 07:41:25;;;;;;;7.57;5.00;;;25.60;99.90;;;;;;5049122;28;20053;-56
2022/08/25 07:43:51;;;;;;;7.13;5.20;;;25.80;99.90;;;;;;5054000;28;20195;-56
2022/08/25 07:46:17;;;;;;;6.82;5.57;;;26.00;99.90;;;;;;5049890;28;20457;-56
2022/08/25 07:48:43;;;;;;;9.98;5.22;;;26.20;99.90;;;;;;5049872;28;20081;-55
2022/08/25 07:51:13;;;;;;;9.38;4.70;;;26.40;99.90;;;;;;5049462;28;20056;-56
2022/08/25 07:53:39;;;;;;;12.15;5.47;;;26.50;99.90;;;;;;5049458;28;20482;-55
2022/08/25 07:56:10;;;;;;;7.22;4.70;;;26.60;99.90;;;;;;5050885;28;20482;-56
2022/08/25 07:58:37;;;;;;;8.73;5.18;;;26.70;99.90;;;;;;5049904;28;20089;-56
2022/08/25 08:01:03;;;;;;;6.88;4.32;;;27.20;99.90;;;;;;5049260;28;20053;-58
2022/08/25 08:03:30;;;;;;;6.13;4.15;;;27.30;99.90;;;;;;5049061;28;20128;-56
2022/08/25 08:05:56;;;;;;;5.78;3.55;;;27.70;99.90;;;;;;5067487;28;20059;-57
2022/08/25 08:08:22;;;;;;;6.28;4.25;;;28.20;99.90;;;;;;5069018;28;20052;-57
2022/08/25 08:10:48;;;;;;;10.00;5.35;;;28.40;99.90;;;;;;5050754;28;20083;-56
2022/08/25 08:13:14;;;;;;;6.25;4.40;;;28.50;99.90;;;;;;5049131;28;20183;-56
2022/08/25 08:15:42;;;;;;;5.47;4.10;;;28.80;99.90;;;;;;5049348;28;20495;-56
2022/08/25 08:18:09;;;;;;;5.15;4.32;;;29.30;99.90;;;;;;5055434;28;20075;-55
2022/08/25 08:20:35;;;;;;;4.30;3.90;;;29.50;99.80;;;;;;5069341;28;20060;-56
2022/08/25 08:23:01;;;;;;;7.60;4.20;;;30.00;99.70;;;;;;5069124;28;20045;-56
2022/08/25 08:25:27;;;;;;;4.88;3.33;;;30.00;99.40;;;;;;5067319;28;20045;-56
2022/08/25 08:27:53;;;;;;;6.20;3.83;;;30.20;99.20;;;;;;5053889;28;20080;-56
2022/08/25 08:30:20;;;;;;;6.15;4.25;;;30.40;99.00;;;;;;5055732;28;20052;-55
2022/08/25 08:32:47;;;;;;;7.82;4.78;;;30.30;98.10;;;;;;5048737;28;20045;-55
2022/08/25 08:35:14;;;;;;;8.23;4.53;;;30.40;98.00;;;;;;5058024;28;20055;-55
2022/08/25 08:37:41;;;;;;;8.35;4.20;;;30.50;98.10;;;;;;5052286;28;20049;-56
2022/08/25 08:40:08;;;;;;;9.60;3.80;;;30.90;97.30;;;;;;5051625;28;20051;-55
2022/08/25 08:42:44;;;;;;;11.00;4.20;;;31.10;97.80;;;;;;5068381;28;20059;-55
2022/08/25 08:45:44;;;;;;;4.60;3.50;;;31.30;96.90;;;;;;5068785;28;20092;-56
2022/08/25 08:48:19;;;;;;;10.55;4.03;;;31.40;96.20;;;;;;5068732;28;20106;-55
2022/08/25 08:51:09;;;;;;;4.63;3.45;;;31.60;96.50;;;;;;5067720;28;20131;-56
2022/08/25 08:54:03;;;;;;;5.20;3.58;;;32.00;96.40;;;;;;5066725;28;20460;-55
2022/08/25 08:56:35;;;;;;;8.70;3.67;;;31.90;95.80;;;;;;5068408;28;20087;-55
2022/08/25 08:59:24;;;;;;;4.32;3.40;;;31.90;96.90;;;;;;5068306;28;20044;-56
2022/08/25 09:02:02;;;;;;;5.85;3.80;;;32.20;95.80;;;;;;5068553;28;20098;-57
2022/08/25 09:04:41;;;;;;;8.52;3.72;;;32.00;95.40;;;;;;5068495;28;20040;-55
2022/08/25 09:07:18;;;;;;;5.00;3.67;;;32.40;95.10;;;;;;5067118;28;20495;-57
2022/08/25 09:09:44;;;;;;;11.35;3.22;;;32.30;95.30;;;;;;5067522;28;20573;-56
2022/08/25 09:12:26;;;;;;;7.90;4.38;;;32.30;95.10;;;;;;5067652;28;20052;-55
2022/08/25 09:15:22;;;;;;;4.03;2.78;;;32.60;94.80;;;;;;5066586;28;20481;-58
2022/08/25 09:18:10;;;;;;;5.05;3.90;;;32.80;95.30;;;;;;5063125;28;20532;-56
2022/08/25 09:21:15;;;;;;;4.53;3.28;;;32.90;94.20;;;;;;5068194;28;20053;-58
2022/08/25 09:24:12;;;;;;;5.95;3.75;;;32.90;94.10;;;;;;5066145;28;20052;-58
2022/08/25 09:27:01;;;;;;;9.30;3.60;;;33.20;94.30;;;;;;5065371;28;20052;-55
2022/08/25 09:29:38;;;;;;;5.75;3.10;;;33.30;93.20;;;;;;5067394;28;20170;-56
2022/08/25 09:32:06;;;;;;;3.78;3.40;;;33.10;94.10;;;;;;5067056;28;20060;-56
2022/08/25 09:34:33;;;;;;;7.45;3.95;;;33.20;94.70;;;;;;5067596;28;20083;-56
2022/08/25 09:36:59;;;;;;;5.18;3.60;;;33.40;94.40;;;;;;5076774;28;20056;-56
2022/08/25 09:39:25;;;;;;;6.63;3.20;;;33.20;94.00;;;;;;5066785;28;20111;-56
2022/08/25 09:41:55;;;;;;;6.22;3.22;;;33.40;94.30;;;;;;5066630;28;20119;-56
2022/08/25 09:44:37;;;;;;;5.75;3.58;;;33.50;94.00;;;;;;5066760;28;20044;-55
2022/08/25 09:47:14;;;;;;;3.57;2.50;;;33.50;92.60;;;;;;5066926;28;20048;-56
2022/08/25 09:49:49;;;;;;;6.45;3.40;;;33.90;93.30;;;;;;5065648;28;20289;-56
2022/08/25 09:52:31;;;;;;;7.05;3.10;;;33.60;93.00;;;;;;5066862;28;20044;-56
2022/08/25 09:55:04;;;;;;;4.00;2.95;;;33.40;92.80;;;;;;5067373;28;20048;-56
2022/08/25 09:57:43;;;;;;;;;;;33.50;93.50;;;;;;5065887;28;20053;-56
2022/08/25 10:00:13;;;;;;;4.35;2.70;;;33.40;92.90;;;;;;5066023;28;19924;-56
2022/08/25 10:02:41;;;;;;;5.88;2.40;;;33.60;93.00;;;;;;5066565;28;20051;-57
2022/08/25 10:05:24;;;;;;;4.25;2.45;;;33.50;92.60;;;;;;5066908;28;20494;-57
2022/08/25 10:07:53;;;;;;;;;;;33.10;91.70;;;;;;5067078;28;20044;-56
2022/08/25 10:10:32;;;;;;;4.57;2.85;;;33.10;91.80;;;;;;5066777;28;20029;-57
2022/08/25 10:12:59;;;;;;;3.67;2.75;;;32.90;91.50;;;;;;5066954;28;20055;-56
2022/08/25 10:15:35;;;;;;;5.70;2.70;;;33.10;92.30;;;;;;5066571;28;20419;-56
2022/08/25 10:18:24;;;;;;;6.22;2.97;;;33.30;91.80;;;;;;5061527;28;20124;-58
2022/08/25 10:21:00;;;;;;;3.45;2.85;;;33.40;91.60;;;;;;5046288;28;20866;-56
2022/08/25 10:23:26;;;;;;;3.75;2.75;;;33.20;91.50;;;;;;5056202;28;20044;-56
2022/08/25 10:25:53;;;;;;;4.05;2.53;;;33.50;91.50;;;;;;5066560;28;20060;-56
2022/08/25 10:29:01;;;;;;;6.03;3.03;;;33.30;91.50;;;;;;5066183;28;20064;-58
2022/08/25 10:31:42;;;;;;;5.72;2.88;;;32.90;91.30;;;;;;5066133;28;20089;-56
2022/08/25 10:34:19;;;;;;;2.88;2.55;;;32.80;91.50;;;;;;5066509;28;20044;-56
2022/08/25 10:37:03;;;;;;;4.15;3.20;;;32.80;91.20;;;;;;5075634;28;20091;-56
2022/08/25 10:39:54;;;;;;;3.55;2.78;;;32.90;91.50;;;;;;5066068;28;20139;-56
2022/08/25 10:42:52;;;;;;;3.90;3.17;;;32.80;91.80;;;;;;5066203;28;20126;-56
2022/08/25 10:45:42;;;;;;;7.95;3.20;;;33.20;91.50;;;;;;5066696;28;20079;-56
2022/08/25 10:48:30;;;;;;;4.75;2.60;;;33.10;91.70;;;;;;5065846;28;20646;-60
2022/08/25 10:51:12;;;;;;;6.03;2.83;;;33.40;92.30;;;;;;5065513;28;20040;-56
2022/08/25 10:53:50;;;;;;;7.33;2.73;;;33.50;91.80;;;;;;5065817;28;20405;-57
2022/08/25 10:56:21;;;;;;;3.58;2.78;;;33.20;91.40;;;;;;5066279;28;20286;-60
2022/08/25 10:58:47;;;;;;;6.03;2.90;;;33.10;91.30;;;;;;5070472;28;20202;-56
2022/08/25 11:01:33;;;;;;;4.68;2.85;;;33.40;91.20;;;;;;5070656;28;20398;-56
2022/08/25 11:04:06;;;;;;;8.15;2.40;;;33.40;91.20;;;;;;5038290;28;20648;-57
2022/08/25 11:06:48;;;;;;;3.78;2.55;;;33.20;91.40;;;;;;5068212;28;20044;-60
2022/08/25 11:09:20;;;;;;;4.32;2.30;;;33.60;90.60;;;;;;5070088;28;20584;-56
2022/08/25 11:11:48;;;;;;;7.13;2.63;;;33.60;90.90;;;;;;5069831;28;20057;-60
2022/08/25 11:14:19;;;;;;;4.30;2.85;;;33.80;90.70;;;;;;5069704;28;20056;-61
2022/08/25 11:17:34;;;;;;;5.22;2.95;;;33.30;90.30;;;;;;5070314;28;20067;-59
2022/08/25 11:20:10;;;;;;;7.07;2.60;;;33.60;90.60;;;;;;5048372;28;20044;-57
2022/08/25 11:23:03;;;;;;;4.90;2.38;;;33.60;90.20;;;;;;5053434;28;20376;-64
2022/08/25 11:25:36;;;;;;;3.10;2.22;;;33.80;87.60;;;;;;5070022;28;20179;-63
2022/08/25 11:28:17;;;;;;;7.00;2.92;;;34.80;89.40;;;;;;5069891;28;20555;-63
2022/08/25 11:30:43;;;;;;;5.30;2.15;;;37.20;86.20;;;;;;5066162;28;20102;-64
2022/08/25 11:33:15;;;;;;;5.95;2.78;;;38.60;85.40;;;;;;5049868;28;20049;-64
2022/08/25 11:35:47;;;;;;;7.32;3.17;;;39.90;82.90;;;;;;5062116;28;20044;-62
2022/08/25 11:38:42;;;;;;;3.40;2.38;;;39.30;80.60;;;;;;5048416;28;20060;-62
2022/08/25 11:41:22;;;;;;;8.57;2.70;;;39.80;78.60;;;;;;5048405;28;20146;-57
2022/08/25 11:43:51;;;;;;;8.85;2.80;;;40.50;77.50;;;;;;5049679;28;20537;-56
2022/08/25 11:46:25;;;;;;;3.17;2.05;;;42.20;77.70;;;;;;5051357;28;20048;-56
2022/08/25 11:49:36;;;;;;;4.05;2.30;;;41.70;76.10;;;;;;5049554;28;20106;-57
2022/08/25 11:52:03;;;;;;;3.30;2.20;;;42.40;74.10;;;;;;5041137;28;20402;-58
2022/08/25 11:54:35;;;;;;;3.00;2.10;;;43.40;74.50;;;;;;5048974;28;20041;-58
2022/08/25 11:57:15;;;;;;;4.60;2.13;;;43.10;72.70;;;;;;5049914;28;20051;-56
2022/08/25 11:59:55;;;;;;;5.70;2.40;;;43.30;70.90;;;;;;5048380;28;20056;-57
2022/08/25 12:02:38;;;;;;;5.13;2.47;;;43.10;71.60;;;;;;5049887;28;20049;-56
2022/08/25 12:05:10;;;;;;;5.07;1.92;;;42.00;69.80;;;;;;5049747;28;20044;-57
2022/08/25 12:08:37;;;;;;;5.18;2.13;;;42.30;71.20;;;;;;5048984;28;20049;-56
2022/08/25 12:11:05;;;;;;;6.68;2.92;;;43.00;70.20;;;;;;5047981;28;20048;-56
2022/08/25 12:13:41;;;;;;;7.95;2.50;;;44.20;69.00;;;;;;5049078;28;20061;-56
2022/08/25 12:16:35;;;;;;;7.05;2.67;;;44.00;68.90;;;;;;5048820;28;20514;-56
2022/08/25 12:19:35;;;;;;;3.17;2.53;;;44.80;67.80;;;;;;5061872;28;20537;-57
2022/08/25 12:22:01;;;;;;;6.32;2.85;;;44.00;67.40;;;;;;5065262;28;20501;-56
2022/08/25 12:24:42;;;;;;;5.25;2.08;;;45.30;67.80;;;;;;5065977;28;20853;-56
2022/08/25 12:27:40;;;;;;;3.63;2.63;;;45.20;66.20;;;;;;5069241;28;20154;-60
2022/08/25 12:30:27;;;;;;;4.90;2.25;;;44.90;66.10;;;;;;5068837;28;20053;-57
2022/08/25 12:32:59;;;;;;;11.43;3.10;;;44.70;65.70;;;;;;5069259;28;20044;-56
2022/08/25 12:35:39;;;;;;;5.63;2.97;;;45.10;65.40;;;;;;5068422;28;20437;-56
2022/08/25 12:38:26;;;;;;;6.32;3.63;;;44.50;65.00;;;;;;5067469;28;20048;-56
2022/08/25 12:40:56;;;;;;;4.53;2.50;;;44.30;64.90;;;;;;5048926;28;20061;-56
2022/08/25 12:43:29;;;;;;;16.05;3.08;;;44.40;64.70;;;;;;5048834;28;20056;-56
2022/08/25 12:46:21;;;;;;;3.55;2.20;;;44.00;65.10;;;;;;5049297;28;20052;-55
2022/08/25 12:48:59;;;;;;;3.70;2.50;;;43.60;65.20;;;;;;5028203;28;20807;-56
2022/08/25 12:51:52;;;;;;;4.15;2.40;;;43.20;64.90;;;;;;5048145;28;20491;-57
2022/08/25 12:54:22;;;;;;;2.85;2.10;;;42.60;65.60;;;;;;5065816;28;20505;-56
2022/08/25 12:56:57;;;;;;;4.80;2.17;;;40.70;65.50;;;;;;5068287;28;20072;-56
2022/08/25 12:59:31;;;;;;;5.43;3.35;;;39.70;67.50;;;;;;5065795;28;20064;-58
2022/08/25 13:02:17;;;;;;;6.90;2.25;;;38.70;66.40;;;;;;5063071;28;20106;-56
2022/08/25 13:05:05;;;;;;;5.22;2.25;;;38.40;68.00;;;;;;5058868;28;20463;-56
2022/08/25 13:07:46;;;;;;;7.95;3.05;;;37.60;67.70;;;;;;5067185;28;20584;-59
2022/08/25 13:10:19;;;;;;;7.30;2.72;;;37.40;69.20;;;;;;5067327;28;20086;-59